sensor_id;sensor_type;location;lat;lon;timestamp;temperature;humidity
10453;DHT22;5274;51.992;8.518;2023-01-24T00:00:48;1.80;1.00
10453;DHT22;5274;51.992;8.518;2023-01-24T00:03:13;1.80;1.00
10453;DHT22;5274;51.992;8.518;2023-01-24T00:05:40;1.80;1.00
10453;DHT22;5274;51.992;8.518;2023-01-24T00:08:05;1.80;1.00
10453;DHT22;5274;51.992;8.518;2023-01-24T00:10:31;1.80;1.00
10453;DHT22;5274;51.992;8.518;2023-01-24T00:12:58;1.80;1.00
10453;DHT22;5274;51.992;8.518;2023-01-24T00:15:23;1.90;1.00
10453;DHT22;5274;51.992;8.518;2023-01-24T00:17:49;1.90;1.00
10453;DHT22;5274;51.992;8.518;2023-01-24T00:20:15;1.90;1.00
10453;DHT22;5274;51.992;8.518;2023-01-24T00:22:41;1.80;1.00
10453;DHT22;5274;51.992;8.518;2023-01-24T00:25:06;1.90;1.00
10453;DHT22;5274;51.992;8.518;2023-01-24T00:27:32;1.90;1.00
10453;DHT22;5274;51.992;8.518;2023-01-24T00:29:59;1.90;1.00
10453;DHT22;5274;51.992;8.518;2023-01-24T00:32:25;1.90;1.00
10453;DHT22;5274;51.992;8.518;2023-01-24T00:34:50;1.90;1.00
10453;DHT22;5274;51.992;8.518;2023-01-24T00:37:16;1.90;99.90
10453;DHT22;5274;51.992;8.518;2023-01-24T00:39:41;1.90;99.90
10453;DHT22;5274;51.992;8.518;2023-01-24T00:42:07;1.90;99.90
10453;DHT22;5274;51.992;8.518;2023-01-24T00:44:32;1.90;99.90
10453;DHT22;5274;51.992;8.518;2023-01-24T00:46:58;1.90;99.90
10453;DHT22;5274;51.992;8.518;2023-01-24T00:49:23;1.90;99.90
10453;DHT22;5274;51.992;8.518;2023-01-24T00:51:49;1.90;1.00
10453;DHT22;5274;51.992;8.518;2023-01-24T00:54:14;1.80;1.00
10453;DHT22;5274;51.992;8.518;2023-01-24T00:56:40;1.90;99.90
10453;DHT22;5274;51.992;8.518;2023-01-24T00:59:05;1.80;99.90
10453;DHT22;5274;51.992;8.518;2023-01-24T01:01:31;1.80;99.90
10453;DHT22;5274;51.992;8.518;2023-01-24T01:03:57;1.80;99.90
10453;DHT22;5274;51.992;8.518;2023-01-24T01:06:24;1.70;99.90
10453;DHT22;5274;51.992;8.518;2023-01-24T01:08:50;1.80;99.90
10453;DHT22;5274;51.992;8.518;2023-01-24T01:11:16;1.80;99.90
10453;DHT22;5274;51.992;8.518;2023-01-24T01:13:42;1.80;99.90
10453;DHT22;5274;51.992;8.518;2023-01-24T01:16:11;1.80;99.90
10453;DHT22;5274;51.992;8.518;2023-01-24T01:18:38;1.80;99.90
10453;DHT22;5274;51.992;8.518;2023-01-24T01:21:04;1.80;99.90
10453;DHT22;5274;51.992;8.518;2023-01-24T01:23:30;1.80;99.90
10453;DHT22;5274;51.992;8.518;2023-01-24T01:26:00;1.90;99.90
10453;DHT22;5274;51.992;8.518;2023-01-24T01:28:26;1.90;99.90
10453;DHT22;5274;51.992;8.518;2023-01-24T01:30:52;1.90;99.90
10453;DHT22;5274;51.992;8.518;2023-01-24T01:33:18;1.90;39.90
10453;DHT22;5274;51.992;8.518;2023-01-24T01:35:44;1.90;45.30
10453;DHT22;5274;51.992;8.518;2023-01-24T01:38:09;1.80;91.40
10453;DHT22;5274;51.992;8.518;2023-01-24T01:40:34;1.90;35.50
10453;DHT22;5274;51.992;8.518;2023-01-24T01:43:01;1.80;99.90
10453;DHT22;5274;51.992;8.518;2023-01-24T01:47:58;1.80;1.00
10453;DHT22;5274;51.992;8.518;2023-01-24T01:50:36;1.80;1.00
10453;DHT22;5274;51.992;8.518;2023-01-24T01:53:05;1.80;99.90
10453;DHT22;5274;51.992;8.518;2023-01-24T01:55:33;1.70;54.70
10453;DHT22;5274;51.992;8.518;2023-01-24T01:58:01;1.70;99.90
10453;DHT22;5274;51.992;8.518;2023-01-24T02:00:27;1.70;99.90
10453;DHT22;5274;51.992;8.518;2023-01-24T02:03:11;1.70;99.90
10453;DHT22;5274;51.992;8.518;2023-01-24T02:05:57;1.70;99.90
10453;DHT22;5274;51.992;8.518;2023-01-24T02:08:23;1.80;99.90
10453;DHT22;5274;51.992;8.518;2023-01-24T02:10:50;1.70;99.90
10453;DHT22;5274;51.992;8.518;2023-01-24T02:13:36;1.70;1.00
10453;DHT22;5274;51.992;8.518;2023-01-24T02:16:04;1.70;99.90
10453;DHT22;5274;51.992;8.518;2023-01-24T02:18:36;1.70;99.90
10453;DHT22;5274;51.992;8.518;2023-01-24T02:21:04;1.70;1.00
10453;DHT22;5274;51.992;8.518;2023-01-24T02:23:57;1.70;61.30
10453;DHT22;5274;51.992;8.518;2023-01-24T02:26:26;1.70;99.90
10453;DHT22;5274;51.992;8.518;2023-01-24T02:29:07;1.80;1.00
10453;DHT22;5274;51.992;8.518;2023-01-24T02:32:01;1.80;1.00
10453;DHT22;5274;51.992;8.518;2023-01-24T02:34:28;1.70;1.00
10453;DHT22;5274;51.992;8.518;2023-01-24T02:36:56;1.70;1.00
10453;DHT22;5274;51.992;8.518;2023-01-24T02:39:28;1.80;1.00
10453;DHT22;5274;51.992;8.518;2023-01-24T02:41:59;1.70;1.00
10453;DHT22;5274;51.992;8.518;2023-01-24T02:47:14;1.70;1.00
10453;DHT22;5274;51.992;8.518;2023-01-24T02:49:40;1.70;1.00
10453;DHT22;5274;51.992;8.518;2023-01-24T02:52:07;1.70;59.50
10453;DHT22;5274;51.992;8.518;2023-01-24T02:54:52;1.70;1.00
10453;DHT22;5274;51.992;8.518;2023-01-24T02:57:18;1.70;53.60
10453;DHT22;5274;51.992;8.518;2023-01-24T03:00:02;1.70;99.90
10453;DHT22;5274;51.992;8.518;2023-01-24T03:02:28;1.70;99.90
10453;DHT22;5274;51.992;8.518;2023-01-24T03:04:54;1.70;99.90
10453;DHT22;5274;51.992;8.518;2023-01-24T03:07:19;1.70;99.90
10453;DHT22;5274;51.992;8.518;2023-01-24T03:09:45;1.70;29.30
10453;DHT22;5274;51.992;8.518;2023-01-24T03:12:13;1.70;1.00
10453;DHT22;5274;51.992;8.518;2023-01-24T03:14:57;1.80;2.90
10453;DHT22;5274;51.992;8.518;2023-01-24T03:17:41;1.70;1.00
10453;DHT22;5274;51.992;8.518;2023-01-24T03:20:25;1.70;63.10
10453;DHT22;5274;51.992;8.518;2023-01-24T03:23:09;1.70;1.00
10453;DHT22;5274;51.992;8.518;2023-01-24T03:25:54;1.70;99.90
10453;DHT22;5274;51.992;8.518;2023-01-24T03:28:40;1.60;99.90
10453;DHT22;5274;51.992;8.518;2023-01-24T03:31:25;1.70;99.90
10453;DHT22;5274;51.992;8.518;2023-01-24T03:34:09;1.70;99.90
10453;DHT22;5274;51.992;8.518;2023-01-24T03:36:53;1.60;99.90
10453;DHT22;5274;51.992;8.518;2023-01-24T03:39:18;1.60;99.90
10453;DHT22;5274;51.992;8.518;2023-01-24T03:42:02;1.70;99.90
10453;DHT22;5274;51.992;8.518;2023-01-24T03:44:28;1.70;99.90
10453;DHT22;5274;51.992;8.518;2023-01-24T03:46:53;1.70;99.90
10453;DHT22;5274;51.992;8.518;2023-01-24T03:49:19;2.70;99.90
10453;DHT22;5274;51.992;8.518;2023-01-24T03:51:45;1.60;99.90
10453;DHT22;5274;51.992;8.518;2023-01-24T03:54:29;1.60;99.90
10453;DHT22;5274;51.992;8.518;2023-01-24T03:56:54;1.70;99.90
10453;DHT22;5274;51.992;8.518;2023-01-24T03:59:20;1.70;99.90
10453;DHT22;5274;51.992;8.518;2023-01-24T04:01:45;1.70;99.90
10453;DHT22;5274;51.992;8.518;2023-01-24T04:04:11;1.70;99.90
10453;DHT22;5274;51.992;8.518;2023-01-24T04:06:37;1.70;99.90
10453;DHT22;5274;51.992;8.518;2023-01-24T04:09:02;1.60;69.50
10453;DHT22;5274;51.992;8.518;2023-01-24T04:11:28;1.70;99.90
10453;DHT22;5274;51.992;8.518;2023-01-24T04:13:54;1.60;99.90
10453;DHT22;5274;51.992;8.518;2023-01-24T04:16:19;1.60;99.90
10453;DHT22;5274;51.992;8.518;2023-01-24T04:18:45;1.60;99.90
10453;DHT22;5274;51.992;8.518;2023-01-24T04:21:10;1.50;99.90
10453;DHT22;5274;51.992;8.518;2023-01-24T04:23:37;1.60;99.90
10453;DHT22;5274;51.992;8.518;2023-01-24T04:26:02;1.60;99.90
10453;DHT22;5274;51.992;8.518;2023-01-24T04:28:28;1.60;99.90
10453;DHT22;5274;51.992;8.518;2023-01-24T04:30:56;1.60;1.00
10453;DHT22;5274;51.992;8.518;2023-01-24T04:33:22;1.70;99.90
10453;DHT22;5274;51.992;8.518;2023-01-24T04:35:48;1.60;99.90
10453;DHT22;5274;51.992;8.518;2023-01-24T04:38:13;1.60;99.90
10453;DHT22;5274;51.992;8.518;2023-01-24T04:40:39;1.60;99.90
10453;DHT22;5274;51.992;8.518;2023-01-24T04:43:05;1.60;99.90
10453;DHT22;5274;51.992;8.518;2023-01-24T04:45:31;1.60;99.90
10453;DHT22;5274;51.992;8.518;2023-01-24T04:47:56;1.70;99.90
10453;DHT22;5274;51.992;8.518;2023-01-24T04:50:22;1.70;99.90
10453;DHT22;5274;51.992;8.518;2023-01-24T04:52:47;1.70;99.90
10453;DHT22;5274;51.992;8.518;2023-01-24T04:55:13;1.70;1.00
10453;DHT22;5274;51.992;8.518;2023-01-24T04:57:38;1.60;99.90
10453;DHT22;5274;51.992;8.518;2023-01-24T05:00:05;1.60;99.90
10453;DHT22;5274;51.992;8.518;2023-01-24T05:02:30;1.70;99.90
10453;DHT22;5274;51.992;8.518;2023-01-24T05:04:57;1.70;99.90
10453;DHT22;5274;51.992;8.518;2023-01-24T05:07:23;1.70;99.90
10453;DHT22;5274;51.992;8.518;2023-01-24T05:09:48;1.70;99.90
10453;DHT22;5274;51.992;8.518;2023-01-24T05:12:14;1.70;99.90
10453;DHT22;5274;51.992;8.518;2023-01-24T05:14:39;1.80;99.90
10453;DHT22;5274;51.992;8.518;2023-01-24T05:17:05;1.70;99.90
10453;DHT22;5274;51.992;8.518;2023-01-24T05:19:30;1.70;99.90
10453;DHT22;5274;51.992;8.518;2023-01-24T05:21:56;1.70;99.90
10453;DHT22;5274;51.992;8.518;2023-01-24T05:24:21;1.70;99.90
10453;DHT22;5274;51.992;8.518;2023-01-24T05:26:47;1.70;99.90
10453;DHT22;5274;51.992;8.518;2023-01-24T05:29:12;1.60;99.90
10453;DHT22;5274;51.992;8.518;2023-01-24T05:31:37;1.60;99.90
10453;DHT22;5274;51.992;8.518;2023-01-24T05:34:03;1.60;99.90
10453;DHT22;5274;51.992;8.518;2023-01-24T05:36:31;1.60;99.90
10453;DHT22;5274;51.992;8.518;2023-01-24T05:38:56;1.50;1.00
10453;DHT22;5274;51.992;8.518;2023-01-24T05:41:22;1.50;1.00
10453;DHT22;5274;51.992;8.518;2023-01-24T05:43:48;1.50;1.00
10453;DHT22;5274;51.992;8.518;2023-01-24T05:46:16;1.50;99.90
10453;DHT22;5274;51.992;8.518;2023-01-24T05:48:43;1.50;99.90
10453;DHT22;5274;51.992;8.518;2023-01-24T05:51:11;1.50;99.90
10453;DHT22;5274;51.992;8.518;2023-01-24T05:53:38;1.50;99.90
10453;DHT22;5274;51.992;8.518;2023-01-24T05:56:06;1.60;99.90
10453;DHT22;5274;51.992;8.518;2023-01-24T05:58:35;1.50;99.90
10453;DHT22;5274;51.992;8.518;2023-01-24T06:01:18;1.50;99.90
10453;DHT22;5274;51.992;8.518;2023-01-24T06:03:45;0.30;99.90
10453;DHT22;5274;51.992;8.518;2023-01-24T06:06:12;1.50;1.00
10453;DHT22;5274;51.992;8.518;2023-01-24T06:08:39;1.50;1.00
10453;DHT22;5274;51.992;8.518;2023-01-24T06:11:11;1.50;1.00
10453;DHT22;5274;51.992;8.518;2023-01-24T06:13:37;1.50;1.00
10453;DHT22;5274;51.992;8.518;2023-01-24T06:16:13;1.50;1.00
10453;DHT22;5274;51.992;8.518;2023-01-24T06:18:39;1.60;1.00
10453;DHT22;5274;51.992;8.518;2023-01-24T06:21:15;1.60;1.00
10453;DHT22;5274;51.992;8.518;2023-01-24T06:23:41;1.60;1.00
10453;DHT22;5274;51.992;8.518;2023-01-24T06:26:09;1.60;1.00
10453;DHT22;5274;51.992;8.518;2023-01-24T06:28:35;1.60;1.00
10453;DHT22;5274;51.992;8.518;2023-01-24T06:31:04;1.60;1.00
10453;DHT22;5274;51.992;8.518;2023-01-24T06:34:01;1.60;1.00
10453;DHT22;5274;51.992;8.518;2023-01-24T06:39:19;1.60;1.00
10453;DHT22;5274;51.992;8.518;2023-01-24T06:41:47;1.50;1.00
10453;DHT22;5274;51.992;8.518;2023-01-24T06:44:13;1.50;99.90
10453;DHT22;5274;51.992;8.518;2023-01-24T06:46:38;1.50;1.00
10453;DHT22;5274;51.992;8.518;2023-01-24T06:49:04;1.50;1.00
10453;DHT22;5274;51.992;8.518;2023-01-24T06:51:29;1.50;1.00
10453;DHT22;5274;51.992;8.518;2023-01-24T06:53:55;1.50;99.90
10453;DHT22;5274;51.992;8.518;2023-01-24T06:56:20;1.50;1.00
10453;DHT22;5274;51.992;8.518;2023-01-24T06:58:46;1.40;99.90
10453;DHT22;5274;51.992;8.518;2023-01-24T07:01:12;1.50;1.00
10453;DHT22;5274;51.992;8.518;2023-01-24T07:03:38;1.50;99.90
10453;DHT22;5274;51.992;8.518;2023-01-24T07:06:03;1.50;1.00
10453;DHT22;5274;51.992;8.518;2023-01-24T07:08:29;1.50;99.90
10453;DHT22;5274;51.992;8.518;2023-01-24T07:10:57;1.50;99.90
10453;DHT22;5274;51.992;8.518;2023-01-24T07:13:22;1.60;99.90
10453;DHT22;5274;51.992;8.518;2023-01-24T07:15:48;1.50;99.90
10453;DHT22;5274;51.992;8.518;2023-01-24T07:18:15;1.60;99.90
10453;DHT22;5274;51.992;8.518;2023-01-24T07:20:41;1.60;99.90
10453;DHT22;5274;51.992;8.518;2023-01-24T07:25:45;1.60;1.00
10453;DHT22;5274;51.992;8.518;2023-01-24T07:28:11;1.60;1.00
10453;DHT22;5274;51.992;8.518;2023-01-24T07:30:37;1.60;1.00
10453;DHT22;5274;51.992;8.518;2023-01-24T07:33:02;1.60;1.00
10453;DHT22;5274;51.992;8.518;2023-01-24T07:35:28;1.50;1.00
10453;DHT22;5274;51.992;8.518;2023-01-24T07:37:54;1.50;1.00
10453;DHT22;5274;51.992;8.518;2023-01-24T07:40:20;1.50;1.00
10453;DHT22;5274;51.992;8.518;2023-01-24T07:42:45;1.50;1.00
10453;DHT22;5274;51.992;8.518;2023-01-24T07:45:11;1.50;1.00
10453;DHT22;5274;51.992;8.518;2023-01-24T07:47:36;1.60;1.00
10453;DHT22;5274;51.992;8.518;2023-01-24T07:50:02;1.50;1.00
10453;DHT22;5274;51.992;8.518;2023-01-24T07:52:27;1.60;1.00
10453;DHT22;5274;51.992;8.518;2023-01-24T07:54:53;1.50;1.00
10453;DHT22;5274;51.992;8.518;2023-01-24T07:57:19;1.50;99.90
10453;DHT22;5274;51.992;8.518;2023-01-24T07:59:44;1.50;99.90
10453;DHT22;5274;51.992;8.518;2023-01-24T08:02:10;1.60;1.00
10453;DHT22;5274;51.992;8.518;2023-01-24T08:04:36;1.60;99.90
10453;DHT22;5274;51.992;8.518;2023-01-24T08:07:02;1.60;99.90
10453;DHT22;5274;51.992;8.518;2023-01-24T08:09:43;1.50;99.90
10453;DHT22;5274;51.992;8.518;2023-01-24T08:12:09;1.40;99.90
10453;DHT22;5274;51.992;8.518;2023-01-24T08:14:34;1.50;1.00
10453;DHT22;5274;51.992;8.518;2023-01-24T08:17:00;1.40;99.90
10453;DHT22;5274;51.992;8.518;2023-01-24T08:19:25;1.40;1.00
10453;DHT22;5274;51.992;8.518;2023-01-24T08:21:51;1.40;1.00
10453;DHT22;5274;51.992;8.518;2023-01-24T08:24:16;1.40;1.00
10453;DHT22;5274;51.992;8.518;2023-01-24T08:26:42;1.40;1.00
10453;DHT22;5274;51.992;8.518;2023-01-24T08:29:11;1.40;99.90
10453;DHT22;5274;51.992;8.518;2023-01-24T08:31:37;1.50;1.00
10453;DHT22;5274;51.992;8.518;2023-01-24T08:34:02;1.50;1.00
10453;DHT22;5274;51.992;8.518;2023-01-24T08:36:28;1.60;99.90
10453;DHT22;5274;51.992;8.518;2023-01-24T08:38:53;1.60;99.90
10453;DHT22;5274;51.992;8.518;2023-01-24T08:41:19;1.70;99.90
10453;DHT22;5274;51.992;8.518;2023-01-24T08:43:44;1.70;99.90
10453;DHT22;5274;51.992;8.518;2023-01-24T08:46:10;1.70;99.90
10453;DHT22;5274;51.992;8.518;2023-01-24T08:48:35;1.60;99.90
10453;DHT22;5274;51.992;8.518;2023-01-24T08:51:04;1.70;99.90
10453;DHT22;5274;51.992;8.518;2023-01-24T08:53:30;1.70;99.90
10453;DHT22;5274;51.992;8.518;2023-01-24T08:55:56;1.70;99.90
10453;DHT22;5274;51.992;8.518;2023-01-24T08:58:21;1.70;93.20
10453;DHT22;5274;51.992;8.518;2023-01-24T09:00:47;1.70;99.90
10453;DHT22;5274;51.992;8.518;2023-01-24T09:03:16;1.70;74.50
10453;DHT22;5274;51.992;8.518;2023-01-24T09:05:42;1.70;30.20
10453;DHT22;5274;51.992;8.518;2023-01-24T09:08:07;1.80;93.30
10453;DHT22;5274;51.992;8.518;2023-01-24T09:10:33;1.80;4.50
10453;DHT22;5274;51.992;8.518;2023-01-24T09:13:00;1.80;1.00
10453;DHT22;5274;51.992;8.518;2023-01-24T09:15:26;1.90;1.00
10453;DHT22;5274;51.992;8.518;2023-01-24T09:17:51;2.00;1.00
10453;DHT22;5274;51.992;8.518;2023-01-24T09:20:17;2.00;1.00
10453;DHT22;5274;51.992;8.518;2023-01-24T09:22:43;2.00;99.90
10453;DHT22;5274;51.992;8.518;2023-01-24T09:25:09;2.00;99.90
10453;DHT22;5274;51.992;8.518;2023-01-24T09:27:36;1.90;99.90
10453;DHT22;5274;51.992;8.518;2023-01-24T09:30:01;2.00;1.00
10453;DHT22;5274;51.992;8.518;2023-01-24T09:32:27;2.00;99.90
10453;DHT22;5274;51.992;8.518;2023-01-24T09:34:54;2.10;99.90
10453;DHT22;5274;51.992;8.518;2023-01-24T09:37:20;2.10;99.90
10453;DHT22;5274;51.992;8.518;2023-01-24T09:39:47;2.20;99.90
10453;DHT22;5274;51.992;8.518;2023-01-24T09:42:45;2.20;99.90
10453;DHT22;5274;51.992;8.518;2023-01-24T09:45:27;2.20;49.80
10453;DHT22;5274;51.992;8.518;2023-01-24T09:47:57;2.30;99.90
10453;DHT22;5274;51.992;8.518;2023-01-24T09:50:28;2.30;77.00
10453;DHT22;5274;51.992;8.518;2023-01-24T09:52:57;2.30;99.90
10453;DHT22;5274;51.992;8.518;2023-01-24T09:55:36;2.20;1.00
10453;DHT22;5274;51.992;8.518;2023-01-24T10:00:44;2.30;96.70
10453;DHT22;5274;51.992;8.518;2023-01-24T10:03:22;2.30;77.30
10453;DHT22;5274;51.992;8.518;2023-01-24T10:05:56;2.30;1.00
10453;DHT22;5274;51.992;8.518;2023-01-24T10:08:26;2.30;5.80
10453;DHT22;5274;51.992;8.518;2023-01-24T10:11:20;2.30;95.30
10453;DHT22;5274;51.992;8.518;2023-01-24T10:14:04;2.40;99.90
10453;DHT22;5274;51.992;8.518;2023-01-24T10:19:53;2.40;1.00
10453;DHT22;5274;51.992;8.518;2023-01-24T10:22:27;2.30;1.00
10453;DHT22;5274;51.992;8.518;2023-01-24T10:25:06;2.40;1.00
10453;DHT22;5274;51.992;8.518;2023-01-24T10:27:41;2.40;1.00
10453;DHT22;5274;51.992;8.518;2023-01-24T10:30:40;2.40;99.90
10453;DHT22;5274;51.992;8.518;2023-01-24T10:33:15;2.50;99.90
10453;DHT22;5274;51.992;8.518;2023-01-24T10:35:57;2.50;97.20
10453;DHT22;5274;51.992;8.518;2023-01-24T10:38:24;2.60;99.90
10453;DHT22;5274;51.992;8.518;2023-01-24T10:41:13;2.60;1.00
10453;DHT22;5274;51.992;8.518;2023-01-24T10:43:41;2.80;1.00
10453;DHT22;5274;51.992;8.518;2023-01-24T10:49:27;2.70;1.00
10453;DHT22;5274;51.992;8.518;2023-01-24T10:52:15;2.70;1.00
10453;DHT22;5274;51.992;8.518;2023-01-24T10:54:58;2.80;1.00
10453;DHT22;5274;51.992;8.518;2023-01-24T10:57:48;2.70;99.90
10453;DHT22;5274;51.992;8.518;2023-01-24T11:02:40;2.80;99.90
10453;DHT22;5274;51.992;8.518;2023-01-24T11:05:09;2.90;99.90
10453;DHT22;5274;51.992;8.518;2023-01-24T11:07:37;2.80;99.90
10453;DHT22;5274;51.992;8.518;2023-01-24T11:12:49;2.90;99.90
10453;DHT22;5274;51.992;8.518;2023-01-24T11:15:20;2.90;99.90
10453;DHT22;5274;51.992;8.518;2023-01-24T11:17:46;3.00;99.90
10453;DHT22;5274;51.992;8.518;2023-01-24T11:20:32;2.90;1.00
10453;DHT22;5274;51.992;8.518;2023-01-24T11:23:24;3.00;99.90
10453;DHT22;5274;51.992;8.518;2023-01-24T11:25:57;3.10;42.40
10453;DHT22;5274;51.992;8.518;2023-01-24T11:28:24;3.20;1.00
10453;DHT22;5274;51.992;8.518;2023-01-24T11:30:51;3.20;1.00
10453;DHT22;5274;51.992;8.518;2023-01-24T11:33:52;3.20;1.00
10453;DHT22;5274;51.992;8.518;2023-01-24T11:36:40;3.30;1.00
10453;DHT22;5274;51.992;8.518;2023-01-24T11:42:06;3.10;1.00
10453;DHT22;5274;51.992;8.518;2023-01-24T11:47:20;3.10;1.00
10453;DHT22;5274;51.992;8.518;2023-01-24T11:50:02;3.20;1.00
10453;DHT22;5274;51.992;8.518;2023-01-24T11:53:01;3.20;1.00
10453;DHT22;5274;51.992;8.518;2023-01-24T11:55:53;3.30;1.00
10453;DHT22;5274;51.992;8.518;2023-01-24T12:01:47;3.20;1.00
10453;DHT22;5274;51.992;8.518;2023-01-24T12:07:16;3.30;1.00
10453;DHT22;5274;51.992;8.518;2023-01-24T12:12:43;3.40;1.00
10453;DHT22;5274;51.992;8.518;2023-01-24T12:15:14;3.50;1.00
10453;DHT22;5274;51.992;8.518;2023-01-24T12:18:09;3.40;99.90
10453;DHT22;5274;51.992;8.518;2023-01-24T12:21:00;3.50;99.90
10453;DHT22;5274;51.992;8.518;2023-01-24T12:23:49;3.50;99.90
10453;DHT22;5274;51.992;8.518;2023-01-24T12:26:21;3.50;99.90
10453;DHT22;5274;51.992;8.518;2023-01-24T12:31:49;3.40;99.90
10453;DHT22;5274;51.992;8.518;2023-01-24T12:37:04;3.30;99.90
10453;DHT22;5274;51.992;8.518;2023-01-24T12:39:48;3.40;99.90
10453;DHT22;5274;51.992;8.518;2023-01-24T12:42:23;3.40;1.00
10453;DHT22;5274;51.992;8.518;2023-01-24T12:44:57;3.50;99.90
10453;DHT22;5274;51.992;8.518;2023-01-24T12:47:36;3.30;99.90
10453;DHT22;5274;51.992;8.518;2023-01-24T12:55:56;3.30;99.90
10453;DHT22;5274;51.992;8.518;2023-01-24T12:58:43;3.30;99.90
10453;DHT22;5274;51.992;8.518;2023-01-24T13:06:48;3.30;1.00
10453;DHT22;5274;51.992;8.518;2023-01-24T13:12:04;3.30;1.00
10453;DHT22;5274;51.992;8.518;2023-01-24T13:14:40;3.30;99.90
10453;DHT22;5274;51.992;8.518;2023-01-24T13:20:44;3.40;99.90
10453;DHT22;5274;51.992;8.518;2023-01-24T13:23:35;3.40;1.00
10453;DHT22;5274;51.992;8.518;2023-01-24T13:29:18;3.30;99.90
10453;DHT22;5274;51.992;8.518;2023-01-24T13:32:04;3.40;99.90
10453;DHT22;5274;51.992;8.518;2023-01-24T13:34:34;3.30;99.90
10453;DHT22;5274;51.992;8.518;2023-01-24T13:37:01;3.40;1.00
10453;DHT22;5274;51.992;8.518;2023-01-24T13:39:34;3.40;1.00
10453;DHT22;5274;51.992;8.518;2023-01-24T13:42:04;3.40;99.90
10453;DHT22;5274;51.992;8.518;2023-01-24T13:44:31;3.40;1.00
10453;DHT22;5274;51.992;8.518;2023-01-24T13:47:04;3.40;99.90
10453;DHT22;5274;51.992;8.518;2023-01-24T13:49:34;3.40;99.90
10453;DHT22;5274;51.992;8.518;2023-01-24T13:52:02;3.30;99.90
10453;DHT22;5274;51.992;8.518;2023-01-24T13:54:41;3.30;99.90
10453;DHT22;5274;51.992;8.518;2023-01-24T13:57:20;3.30;99.90
10453;DHT22;5274;51.992;8.518;2023-01-24T14:10:49;3.20;1.00
10453;DHT22;5274;51.992;8.518;2023-01-24T14:13:53;3.30;1.00
10453;DHT22;5274;51.992;8.518;2023-01-24T14:19:13;3.00;1.00
10453;DHT22;5274;51.992;8.518;2023-01-24T14:22:03;2.90;1.00
10453;DHT22;5274;51.992;8.518;2023-01-24T14:24:34;2.90;1.00
10453;DHT22;5274;51.992;8.518;2023-01-24T14:27:15;2.90;1.00
10453;DHT22;5274;51.992;8.518;2023-01-24T14:29:44;2.80;1.00
10453;DHT22;5274;51.992;8.518;2023-01-24T14:32:49;2.70;10.90
10453;DHT22;5274;51.992;8.518;2023-01-24T14:35:38;2.60;1.00
10453;DHT22;5274;51.992;8.518;2023-01-24T14:38:17;2.50;99.90
10453;DHT22;5274;51.992;8.518;2023-01-24T14:40:48;2.40;99.90
10453;DHT22;5274;51.992;8.518;2023-01-24T14:43:14;2.50;99.90
10453;DHT22;5274;51.992;8.518;2023-01-24T14:45:40;2.50;29.20
10453;DHT22;5274;51.992;8.518;2023-01-24T14:48:10;2.30;99.90
10453;DHT22;5274;51.992;8.518;2023-01-24T14:50:39;2.30;99.90
10453;DHT22;5274;51.992;8.518;2023-01-24T14:55:51;2.40;99.90
10453;DHT22;5274;51.992;8.518;2023-01-24T14:58:21;2.30;99.90
10453;DHT22;5274;51.992;8.518;2023-01-24T15:00:48;2.30;99.90
10453;DHT22;5274;51.992;8.518;2023-01-24T15:03:19;2.30;1.00
10453;DHT22;5274;51.992;8.518;2023-01-24T15:05:57;2.30;99.90
10453;DHT22;5274;51.992;8.518;2023-01-24T15:08:23;2.30;99.90
10453;DHT22;5274;51.992;8.518;2023-01-24T15:10:59;2.30;99.90
10453;DHT22;5274;51.992;8.518;2023-01-24T15:13:29;2.40;99.90
10453;DHT22;5274;51.992;8.518;2023-01-24T15:15:55;2.30;99.90
10453;DHT22;5274;51.992;8.518;2023-01-24T15:20:56;2.20;1.00
10453;DHT22;5274;51.992;8.518;2023-01-24T15:23:23;2.20;1.00
10453;DHT22;5274;51.992;8.518;2023-01-24T15:25:52;2.20;1.00
10453;DHT22;5274;51.992;8.518;2023-01-24T15:28:25;2.20;1.00
10453;DHT22;5274;51.992;8.518;2023-01-24T15:30:59;2.20;1.00
10453;DHT22;5274;51.992;8.518;2023-01-24T15:33:39;2.20;1.00
10453;DHT22;5274;51.992;8.518;2023-01-24T15:36:23;1.90;1.00
10453;DHT22;5274;51.992;8.518;2023-01-24T15:38:49;2.00;1.00
10453;DHT22;5274;51.992;8.518;2023-01-24T15:41:30;2.00;1.00
10453;DHT22;5274;51.992;8.518;2023-01-24T15:44:18;2.00;1.00
10453;DHT22;5274;51.992;8.518;2023-01-24T15:46:44;2.00;99.90
10453;DHT22;5274;51.992;8.518;2023-01-24T15:49:33;2.00;99.90
10453;DHT22;5274;51.992;8.518;2023-01-24T15:54:38;2.00;1.00
10453;DHT22;5274;51.992;8.518;2023-01-24T15:57:06;2.00;1.00
10453;DHT22;5274;51.992;8.518;2023-01-24T15:59:41;2.00;1.00
10453;DHT22;5274;51.992;8.518;2023-01-24T16:02:11;2.00;1.00
10453;DHT22;5274;51.992;8.518;2023-01-24T16:04:37;1.90;99.90
10453;DHT22;5274;51.992;8.518;2023-01-24T16:07:02;1.80;36.80
10453;DHT22;5274;51.992;8.518;2023-01-24T16:09:28;1.70;99.90
10453;DHT22;5274;51.992;8.518;2023-01-24T16:11:53;1.70;99.90
10453;DHT22;5274;51.992;8.518;2023-01-24T16:14:21;1.70;99.90
10453;DHT22;5274;51.992;8.518;2023-01-24T16:16:49;1.70;99.90
10453;DHT22;5274;51.992;8.518;2023-01-24T16:19:18;1.70;99.90
10453;DHT22;5274;51.992;8.518;2023-01-24T16:21:44;1.70;99.90
10453;DHT22;5274;51.992;8.518;2023-01-24T16:24:10;1.80;99.90
10453;DHT22;5274;51.992;8.518;2023-01-24T16:26:36;1.70;99.90
10453;DHT22;5274;51.992;8.518;2023-01-24T16:29:03;1.80;99.90
10453;DHT22;5274;51.992;8.518;2023-01-24T16:31:28;1.70;99.90
10453;DHT22;5274;51.992;8.518;2023-01-24T16:33:54;1.70;99.90
10453;DHT22;5274;51.992;8.518;2023-01-24T16:36:19;1.70;99.90
10453;DHT22;5274;51.992;8.518;2023-01-24T16:38:46;1.70;99.90
10453;DHT22;5274;51.992;8.518;2023-01-24T16:41:12;1.70;1.00
10453;DHT22;5274;51.992;8.518;2023-01-24T16:43:39;1.50;99.90
10453;DHT22;5274;51.992;8.518;2023-01-24T16:46:16;1.50;1.00
10453;DHT22;5274;51.992;8.518;2023-01-24T16:48:42;1.40;1.00
10453;DHT22;5274;51.992;8.518;2023-01-24T16:51:10;1.40;1.00
10453;DHT22;5274;51.992;8.518;2023-01-24T16:53:35;1.40;1.00
10453;DHT22;5274;51.992;8.518;2023-01-24T16:56:01;1.40;1.00
10453;DHT22;5274;51.992;8.518;2023-01-24T16:58:26;1.40;1.00
10453;DHT22;5274;51.992;8.518;2023-01-24T17:00:52;1.40;1.00
10453;DHT22;5274;51.992;8.518;2023-01-24T17:03:17;1.40;1.00
10453;DHT22;5274;51.992;8.518;2023-01-24T17:05:43;1.30;1.00
10453;DHT22;5274;51.992;8.518;2023-01-24T17:08:12;1.40;1.00
10453;DHT22;5274;51.992;8.518;2023-01-24T17:10:40;1.40;1.00
10453;DHT22;5274;51.992;8.518;2023-01-24T17:13:07;1.40;1.00
10453;DHT22;5274;51.992;8.518;2023-01-24T17:15:36;1.40;1.00
10453;DHT22;5274;51.992;8.518;2023-01-24T17:18:02;1.40;1.00
10453;DHT22;5274;51.992;8.518;2023-01-24T17:20:28;1.40;1.00
10453;DHT22;5274;51.992;8.518;2023-01-24T17:22:53;1.40;1.00
10453;DHT22;5274;51.992;8.518;2023-01-24T17:25:19;1.40;1.00
10453;DHT22;5274;51.992;8.518;2023-01-24T17:27:45;1.40;1.00
10453;DHT22;5274;51.992;8.518;2023-01-24T17:30:11;1.40;1.00
10453;DHT22;5274;51.992;8.518;2023-01-24T17:32:36;1.40;1.00
10453;DHT22;5274;51.992;8.518;2023-01-24T17:35:08;1.20;1.00
10453;DHT22;5274;51.992;8.518;2023-01-24T17:37:33;1.20;1.00
10453;DHT22;5274;51.992;8.518;2023-01-24T17:39:59;1.20;1.00
10453;DHT22;5274;51.992;8.518;2023-01-24T17:42:24;1.20;1.00
10453;DHT22;5274;51.992;8.518;2023-01-24T17:44:50;1.30;1.00
10453;DHT22;5274;51.992;8.518;2023-01-24T17:47:15;1.30;1.00
10453;DHT22;5274;51.992;8.518;2023-01-24T17:49:41;1.20;1.00
10453;DHT22;5274;51.992;8.518;2023-01-24T17:52:07;1.20;1.00
10453;DHT22;5274;51.992;8.518;2023-01-24T17:54:32;1.30;1.00
10453;DHT22;5274;51.992;8.518;2023-01-24T17:56:58;1.30;1.00